sensor_id;sensor_type;location;lat;lon;timestamp;temperature;humidity
13796;SHT30;40911;51.552;9.874;2023-04-24T00:02:17;12.09;84.92
13796;SHT30;40911;51.552;9.874;2023-04-24T00:04:39;12.10;84.77
13796;SHT30;40911;51.552;9.874;2023-04-24T00:07:01;12.06;85.02
13796;SHT30;40911;51.552;9.874;2023-04-24T00:09:23;12.06;84.77
13796;SHT30;40911;51.552;9.874;2023-04-24T00:11:46;11.98;85.18
13796;SHT30;40911;51.552;9.874;2023-04-24T00:14:08;11.96;85.29
13796;SHT30;40911;51.552;9.874;2023-04-24T00:16:29;12.00;85.59
13796;SHT30;40911;51.552;9.874;2023-04-24T00:18:51;11.92;85.51
13796;SHT30;40911;51.552;9.874;2023-04-24T00:21:13;11.92;85.88
13796;SHT30;40911;51.552;9.874;2023-04-24T00:23:35;11.92;85.96
13796;SHT30;40911;51.552;9.874;2023-04-24T00:25:56;11.82;85.76
13796;SHT30;40911;51.552;9.874;2023-04-24T00:28:19;11.75;86.02
13796;SHT30;40911;51.552;9.874;2023-04-24T00:30:41;11.74;86.08
13796;SHT30;40911;51.552;9.874;2023-04-24T00:33:03;11.77;85.95
13796;SHT30;40911;51.552;9.874;2023-04-24T00:35:24;11.60;86.28
13796;SHT30;40911;51.552;9.874;2023-04-24T00:37:46;11.65;86.16
13796;SHT30;40911;51.552;9.874;2023-04-24T00:40:08;11.62;85.76
13796;SHT30;40911;51.552;9.874;2023-04-24T00:42:30;11.62;85.79
13796;SHT30;40911;51.552;9.874;2023-04-24T00:44:53;11.57;86.09
13796;SHT30;40911;51.552;9.874;2023-04-24T00:47:15;11.54;85.82
13796;SHT30;40911;51.552;9.874;2023-04-24T00:49:37;11.43;86.18
13796;SHT30;40911;51.552;9.874;2023-04-24T00:51:59;11.57;85.70
13796;SHT30;40911;51.552;9.874;2023-04-24T00:54:21;11.52;85.42
13796;SHT30;40911;51.552;9.874;2023-04-24T00:56:43;11.46;85.24
13796;SHT30;40911;51.552;9.874;2023-04-24T00:59:06;11.37;85.50
13796;SHT30;40911;51.552;9.874;2023-04-24T01:01:29;11.33;85.70
13796;SHT30;40911;51.552;9.874;2023-04-24T01:03:53;11.30;85.59
13796;SHT30;40911;51.552;9.874;2023-04-24T01:06:15;11.30;85.49
13796;SHT30;40911;51.552;9.874;2023-04-24T01:08:37;11.26;85.14
13796;SHT30;40911;51.552;9.874;2023-04-24T01:11:02;11.22;85.14
13796;SHT30;40911;51.552;9.874;2023-04-24T01:13:24;11.20;84.94
13796;SHT30;40911;51.552;9.874;2023-04-24T01:15:46;11.16;85.07
13796;SHT30;40911;51.552;9.874;2023-04-24T01:18:09;11.10;85.13
13796;SHT30;40911;51.552;9.874;2023-04-24T01:20:32;11.09;84.97
13796;SHT30;40911;51.552;9.874;2023-04-24T01:22:56;11.02;85.11
13796;SHT30;40911;51.552;9.874;2023-04-24T01:25:18;10.97;85.28
13796;SHT30;40911;51.552;9.874;2023-04-24T01:27:40;10.92;85.41
13796;SHT30;40911;51.552;9.874;2023-04-24T01:30:02;10.91;85.73
13796;SHT30;40911;51.552;9.874;2023-04-24T01:32:24;10.83;86.03
13796;SHT30;40911;51.552;9.874;2023-04-24T01:34:46;10.88;86.01
13796;SHT30;40911;51.552;9.874;2023-04-24T01:37:08;10.88;86.33
13796;SHT30;40911;51.552;9.874;2023-04-24T01:39:31;10.92;86.29
13796;SHT30;40911;51.552;9.874;2023-04-24T01:41:54;10.83;86.61
13796;SHT30;40911;51.552;9.874;2023-04-24T01:44:15;10.78;86.82
13796;SHT30;40911;51.552;9.874;2023-04-24T01:46:38;10.83;86.63
13796;SHT30;40911;51.552;9.874;2023-04-24T01:49:00;10.82;86.77
13796;SHT30;40911;51.552;9.874;2023-04-24T01:51:22;10.85;86.71
13796;SHT30;40911;51.552;9.874;2023-04-24T01:53:43;10.82;86.82
13796;SHT30;40911;51.552;9.874;2023-04-24T01:56:06;10.82;86.74
13796;SHT30;40911;51.552;9.874;2023-04-24T01:58:28;10.79;87.00
13796;SHT30;40911;51.552;9.874;2023-04-24T02:00:50;10.71;87.15
13796;SHT30;40911;51.552;9.874;2023-04-24T02:03:12;10.64;87.15
13796;SHT30;40911;51.552;9.874;2023-04-24T02:05:33;10.68;87.03
13796;SHT30;40911;51.552;9.874;2023-04-24T02:07:55;10.71;86.92
13796;SHT30;40911;51.552;9.874;2023-04-24T02:10:17;10.67;86.92
13796;SHT30;40911;51.552;9.874;2023-04-24T02:12:40;10.54;87.33
13796;SHT30;40911;51.552;9.874;2023-04-24T02:15:01;10.57;87.29
13796;SHT30;40911;51.552;9.874;2023-04-24T02:17:23;10.60;87.07
13796;SHT30;40911;51.552;9.874;2023-04-24T02:19:45;10.51;87.43
13796;SHT30;40911;51.552;9.874;2023-04-24T02:22:06;10.47;87.44
13796;SHT30;40911;51.552;9.874;2023-04-24T02:24:28;10.48;87.39
13796;SHT30;40911;51.552;9.874;2023-04-24T02:26:50;10.42;87.52
13796;SHT30;40911;51.552;9.874;2023-04-24T02:29:13;10.38;87.67
13796;SHT30;40911;51.552;9.874;2023-04-24T02:31:35;10.31;87.86
13796;SHT30;40911;51.552;9.874;2023-04-24T02:33:56;10.30;87.76
13796;SHT30;40911;51.552;9.874;2023-04-24T02:36:18;10.37;87.46
13796;SHT30;40911;51.552;9.874;2023-04-24T02:38:41;10.24;87.94
13796;SHT30;40911;51.552;9.874;2023-04-24T02:41:03;10.24;88.17
13796;SHT30;40911;51.552;9.874;2023-04-24T02:43:26;10.27;87.81
13796;SHT30;40911;51.552;9.874;2023-04-24T02:45:49;10.30;88.10
13796;SHT30;40911;51.552;9.874;2023-04-24T02:48:11;10.31;88.19
13796;SHT30;40911;51.552;9.874;2023-04-24T02:50:33;10.36;88.10
13796;SHT30;40911;51.552;9.874;2023-04-24T02:52:55;10.44;87.66
13796;SHT30;40911;51.552;9.874;2023-04-24T02:55:16;10.49;87.66
13796;SHT30;40911;51.552;9.874;2023-04-24T02:57:38;10.54;87.30
13796;SHT30;40911;51.552;9.874;2023-04-24T02:59:59;10.68;87.03
13796;SHT30;40911;51.552;9.874;2023-04-24T03:02:22;10.76;86.71
13796;SHT30;40911;51.552;9.874;2023-04-24T03:04:44;10.79;86.45
13796;SHT30;40911;51.552;9.874;2023-04-24T03:07:08;10.60;87.11
13796;SHT30;40911;51.552;9.874;2023-04-24T03:09:29;10.79;86.89
13796;SHT30;40911;51.552;9.874;2023-04-24T03:11:51;10.85;86.59
13796;SHT30;40911;51.552;9.874;2023-04-24T03:14:12;10.88;86.51
13796;SHT30;40911;51.552;9.874;2023-04-24T03:16:34;10.83;86.73
13796;SHT30;40911;51.552;9.874;2023-04-24T03:18:57;10.76;87.31
13796;SHT30;40911;51.552;9.874;2023-04-24T03:21:19;10.92;87.12
13796;SHT30;40911;51.552;9.874;2023-04-24T03:23:40;10.91;86.99
13796;SHT30;40911;51.552;9.874;2023-04-24T03:26:02;10.99;86.93
13796;SHT30;40911;51.552;9.874;2023-04-24T03:28:23;11.07;86.86
13796;SHT30;40911;51.552;9.874;2023-04-24T03:30:45;11.10;86.87
13796;SHT30;40911;51.552;9.874;2023-04-24T03:33:07;11.07;86.88
13796;SHT30;40911;51.552;9.874;2023-04-24T03:35:31;11.12;86.98
13796;SHT30;40911;51.552;9.874;2023-04-24T03:37:53;11.13;86.95
13796;SHT30;40911;51.552;9.874;2023-04-24T03:40:14;11.10;87.04
13796;SHT30;40911;51.552;9.874;2023-04-24T03:42:36;11.07;87.23
13796;SHT30;40911;51.552;9.874;2023-04-24T03:44:57;11.02;87.53
13796;SHT30;40911;51.552;9.874;2023-04-24T03:47:19;10.95;87.75
13796;SHT30;40911;51.552;9.874;2023-04-24T03:49:41;10.88;87.90
13796;SHT30;40911;51.552;9.874;2023-04-24T03:52:04;10.86;87.80
13796;SHT30;40911;51.552;9.874;2023-04-24T03:54:25;10.83;87.91
13796;SHT30;40911;51.552;9.874;2023-04-24T03:56:47;10.85;87.72
13796;SHT30;40911;51.552;9.874;2023-04-24T03:59:09;10.75;88.04
13796;SHT30;40911;51.552;9.874;2023-04-24T04:01:31;10.81;87.84
13796;SHT30;40911;51.552;9.874;2023-04-24T04:03:52;10.75;87.89
13796;SHT30;40911;51.552;9.874;2023-04-24T04:06:14;10.67;88.34
13796;SHT30;40911;51.552;9.874;2023-04-24T04:08:37;10.68;88.33
13796;SHT30;40911;51.552;9.874;2023-04-24T04:10:59;10.72;88.32
13796;SHT30;40911;51.552;9.874;2023-04-24T04:13:22;10.76;88.26
13796;SHT30;40911;51.552;9.874;2023-04-24T04:15:44;10.85;88.06
13796;SHT30;40911;51.552;9.874;2023-04-24T04:20:31;10.86;88.09
13796;SHT30;40911;51.552;9.874;2023-04-24T04:22:53;10.93;88.03
13796;SHT30;40911;51.552;9.874;2023-04-24T04:25:16;10.97;87.84
13796;SHT30;40911;51.552;9.874;2023-04-24T04:27:39;11.06;87.49
13796;SHT30;40911;51.552;9.874;2023-04-24T04:30:02;11.07;87.44
13796;SHT30;40911;51.552;9.874;2023-04-24T04:32:25;11.09;87.50
13796;SHT30;40911;51.552;9.874;2023-04-24T04:34:46;11.10;87.40
13796;SHT30;40911;51.552;9.874;2023-04-24T04:37:09;11.09;87.60
13796;SHT30;40911;51.552;9.874;2023-04-24T04:39:31;11.13;87.46
13796;SHT30;40911;51.552;9.874;2023-04-24T04:41:54;11.17;87.47
13796;SHT30;40911;51.552;9.874;2023-04-24T04:44:15;11.20;87.39
13796;SHT30;40911;51.552;9.874;2023-04-24T04:46:37;11.19;87.56
13796;SHT30;40911;51.552;9.874;2023-04-24T04:48:59;11.33;86.58
13796;SHT30;40911;51.552;9.874;2023-04-24T04:51:20;11.40;86.28
13796;SHT30;40911;51.552;9.874;2023-04-24T04:53:42;11.37;86.49
13796;SHT30;40911;51.552;9.874;2023-04-24T04:56:04;11.39;86.60
13796;SHT30;40911;51.552;9.874;2023-04-24T04:58:27;11.39;86.69
13796;SHT30;40911;51.552;9.874;2023-04-24T05:00:48;11.40;86.62
13796;SHT30;40911;51.552;9.874;2023-04-24T05:03:10;11.40;86.52
13796;SHT30;40911;51.552;9.874;2023-04-24T05:05:31;11.39;86.87
13796;SHT30;40911;51.552;9.874;2023-04-24T05:07:53;11.43;86.53
13796;SHT30;40911;51.552;9.874;2023-04-24T05:10:14;11.46;86.40
13796;SHT30;40911;51.552;9.874;2023-04-24T05:12:36;11.46;86.59
13796;SHT30;40911;51.552;9.874;2023-04-24T05:14:59;11.47;86.27
13796;SHT30;40911;51.552;9.874;2023-04-24T05:17:20;11.46;86.74
13796;SHT30;40911;51.552;9.874;2023-04-24T05:19:42;11.46;86.28
13796;SHT30;40911;51.552;9.874;2023-04-24T05:22:04;11.46;86.81
13796;SHT30;40911;51.552;9.874;2023-04-24T05:24:27;11.46;86.74
13796;SHT30;40911;51.552;9.874;2023-04-24T05:26:48;11.44;86.56
13796;SHT30;40911;51.552;9.874;2023-04-24T05:29:10;11.50;86.53
13796;SHT30;40911;51.552;9.874;2023-04-24T05:31:33;11.48;86.52
13796;SHT30;40911;51.552;9.874;2023-04-24T05:33:55;11.60;86.56
13796;SHT30;40911;51.552;9.874;2023-04-24T05:36:16;11.55;86.22
13796;SHT30;40911;51.552;9.874;2023-04-24T05:38:38;11.60;85.78
13796;SHT30;40911;51.552;9.874;2023-04-24T05:41:00;11.60;85.26
13796;SHT30;40911;51.552;9.874;2023-04-24T05:43:21;11.61;85.77
13796;SHT30;40911;51.552;9.874;2023-04-24T05:45:43;11.64;85.50
13796;SHT30;40911;51.552;9.874;2023-04-24T05:48:06;11.69;85.04
13796;SHT30;40911;51.552;9.874;2023-04-24T05:50:27;11.67;84.89
13796;SHT30;40911;51.552;9.874;2023-04-24T05:52:49;11.82;84.89
13796;SHT30;40911;51.552;9.874;2023-04-24T05:55:10;11.82;84.66
13796;SHT30;40911;51.552;9.874;2023-04-24T05:57:32;11.75;84.34
13796;SHT30;40911;51.552;9.874;2023-04-24T05:59:54;11.93;84.04
13796;SHT30;40911;51.552;9.874;2023-04-24T06:02:15;11.88;84.11
13796;SHT30;40911;51.552;9.874;2023-04-24T06:04:38;11.79;84.11
13796;SHT30;40911;51.552;9.874;2023-04-24T06:07:00;11.74;84.44
13796;SHT30;40911;51.552;9.874;2023-04-24T06:09:23;11.83;84.79
13796;SHT30;40911;51.552;9.874;2023-04-24T06:11:44;11.92;84.80
13796;SHT30;40911;51.552;9.874;2023-04-24T06:14:06;11.78;84.29
13796;SHT30;40911;51.552;9.874;2023-04-24T06:16:27;11.77;84.63
13796;SHT30;40911;51.552;9.874;2023-04-24T06:18:49;11.54;85.72
13796;SHT30;40911;51.552;9.874;2023-04-24T06:21:13;11.61;85.98
13796;SHT30;40911;51.552;9.874;2023-04-24T06:23:34;11.39;86.71
13796;SHT30;40911;51.552;9.874;2023-04-24T06:25:56;11.41;86.95
13796;SHT30;40911;51.552;9.874;2023-04-24T06:28:17;10.97;85.30
13796;SHT30;40911;51.552;9.874;2023-04-24T06:30:39;10.85;84.98
13796;SHT30;40911;51.552;9.874;2023-04-24T06:33:01;11.00;86.33
13796;SHT30;40911;51.552;9.874;2023-04-24T06:35:23;10.96;85.87
13796;SHT30;40911;51.552;9.874;2023-04-24T06:37:46;10.95;85.81
13796;SHT30;40911;51.552;9.874;2023-04-24T06:40:08;10.93;85.28
13796;SHT30;40911;51.552;9.874;2023-04-24T06:42:30;11.07;84.17
13796;SHT30;40911;51.552;9.874;2023-04-24T06:44:51;11.23;83.06
13796;SHT30;40911;51.552;9.874;2023-04-24T06:47:13;11.43;81.82
13796;SHT30;40911;51.552;9.874;2023-04-24T06:49:34;11.62;80.51
13796;SHT30;40911;51.552;9.874;2023-04-24T06:51:56;11.89;79.91
13796;SHT30;40911;51.552;9.874;2023-04-24T06:54:19;12.10;79.31
13796;SHT30;40911;51.552;9.874;2023-04-24T06:56:41;12.27;78.72
13796;SHT30;40911;51.552;9.874;2023-04-24T06:59:02;12.05;78.96
13796;SHT30;40911;51.552;9.874;2023-04-24T07:01:24;12.03;78.63
13796;SHT30;40911;51.552;9.874;2023-04-24T07:03:45;12.05;78.43
13796;SHT30;40911;51.552;9.874;2023-04-24T07:06:07;12.00;76.91
13796;SHT30;40911;51.552;9.874;2023-04-24T07:08:29;11.98;74.41
13796;SHT30;40911;51.552;9.874;2023-04-24T07:10:52;12.22;74.17
13796;SHT30;40911;51.552;9.874;2023-04-24T07:13:13;12.63;73.88
13796;SHT30;40911;51.552;9.874;2023-04-24T07:15:35;12.53;73.39
13796;SHT30;40911;51.552;9.874;2023-04-24T07:17:57;12.51;73.23
13796;SHT30;40911;51.552;9.874;2023-04-24T07:20:18;12.48;72.74
13796;SHT30;40911;51.552;9.874;2023-04-24T07:22:40;12.47;72.25
13796;SHT30;40911;51.552;9.874;2023-04-24T07:25:01;12.16;74.03
13796;SHT30;40911;51.552;9.874;2023-04-24T07:27:25;12.20;73.86
13796;SHT30;40911;51.552;9.874;2023-04-24T07:29:46;11.86;74.79
13796;SHT30;40911;51.552;9.874;2023-04-24T07:32:08;12.26;73.80
13796;SHT30;40911;51.552;9.874;2023-04-24T07:34:30;12.78;73.22
13796;SHT30;40911;51.552;9.874;2023-04-24T07:36:52;13.41;73.54
13796;SHT30;40911;51.552;9.874;2023-04-24T07:39:13;12.99;72.21
13796;SHT30;40911;51.552;9.874;2023-04-24T07:41:35;13.39;70.88
13796;SHT30;40911;51.552;9.874;2023-04-24T07:43:58;13.50;70.03
13796;SHT30;40911;51.552;9.874;2023-04-24T07:46:20;13.23;68.42
13796;SHT30;40911;51.552;9.874;2023-04-24T07:48:41;13.13;67.82
13796;SHT30;40911;51.552;9.874;2023-04-24T07:51:03;13.05;67.67
13796;SHT30;40911;51.552;9.874;2023-04-24T07:53:25;13.61;67.83
13796;SHT30;40911;51.552;9.874;2023-04-24T07:55:46;12.79;68.02
13796;SHT30;40911;51.552;9.874;2023-04-24T07:58:08;13.61;69.23
13796;SHT30;40911;51.552;9.874;2023-04-24T08:00:31;13.36;67.70
13796;SHT30;40911;51.552;9.874;2023-04-24T08:02:52;13.91;67.48
13796;SHT30;40911;51.552;9.874;2023-04-24T08:05:14;13.57;68.08
13796;SHT30;40911;51.552;9.874;2023-04-24T08:07:36;12.78;70.51
13796;SHT30;40911;51.552;9.874;2023-04-24T08:09:57;12.95;69.74
13796;SHT30;40911;51.552;9.874;2023-04-24T08:12:19;13.06;69.21
13796;SHT30;40911;51.552;9.874;2023-04-24T08:14:41;13.61;69.62
13796;SHT30;40911;51.552;9.874;2023-04-24T08:17:04;12.33;70.08
13796;SHT30;40911;51.552;9.874;2023-04-24T08:19:25;12.30;71.26
13796;SHT30;40911;51.552;9.874;2023-04-24T08:21:47;12.86;69.78
13796;SHT30;40911;51.552;9.874;2023-04-24T08:24:08;13.09;69.35
13796;SHT30;40911;51.552;9.874;2023-04-24T08:26:30;13.89;67.54
13796;SHT30;40911;51.552;9.874;2023-04-24T08:28:52;13.51;68.30
13796;SHT30;40911;51.552;9.874;2023-04-24T08:31:13;13.37;67.87
13796;SHT30;40911;51.552;9.874;2023-04-24T08:33:36;13.46;68.25
13796;SHT30;40911;51.552;9.874;2023-04-24T08:35:58;13.08;68.95
13796;SHT30;40911;51.552;9.874;2023-04-24T08:38:21;12.67;68.75
13796;SHT30;40911;51.552;9.874;2023-04-24T08:40:42;12.64;69.30
13796;SHT30;40911;51.552;9.874;2023-04-24T08:43:06;12.84;70.02
13796;SHT30;40911;51.552;9.874;2023-04-24T08:45:28;12.69;69.75
13796;SHT30;40911;51.552;9.874;2023-04-24T08:47:52;12.74;69.34
13796;SHT30;40911;51.552;9.874;2023-04-24T08:50:17;12.44;69.09
13796;SHT30;40911;51.552;9.874;2023-04-24T08:52:39;12.82;66.98
13796;SHT30;40911;51.552;9.874;2023-04-24T08:55:00;13.88;66.12
13796;SHT30;40911;51.552;9.874;2023-04-24T08:57:22;13.77;65.78
13796;SHT30;40911;51.552;9.874;2023-04-24T08:59:44;14.33;64.37
13796;SHT30;40911;51.552;9.874;2023-04-24T09:02:10;13.81;64.18
13796;SHT30;40911;51.552;9.874;2023-04-24T09:04:32;14.16;63.82
13796;SHT30;40911;51.552;9.874;2023-04-24T09:06:57;14.02;65.02
13796;SHT30;40911;51.552;9.874;2023-04-24T09:09:19;13.71;62.88
13796;SHT30;40911;51.552;9.874;2023-04-24T09:11:41;13.36;63.83
13796;SHT30;40911;51.552;9.874;2023-04-24T09:14:03;12.91;64.75
13796;SHT30;40911;51.552;9.874;2023-04-24T09:16:26;12.71;66.35
13796;SHT30;40911;51.552;9.874;2023-04-24T09:18:48;12.98;66.56
13796;SHT30;40911;51.552;9.874;2023-04-24T09:21:09;12.60;66.67
13796;SHT30;40911;51.552;9.874;2023-04-24T09:23:33;12.13;68.16
13796;SHT30;40911;51.552;9.874;2023-04-24T09:25:55;12.32;68.15
13796;SHT30;40911;51.552;9.874;2023-04-24T09:28:17;12.34;68.30
13796;SHT30;40911;51.552;9.874;2023-04-24T09:30:38;12.06;68.56
13796;SHT30;40911;51.552;9.874;2023-04-24T09:33:10;11.92;69.32
13796;SHT30;40911;51.552;9.874;2023-04-24T09:35:32;11.99;69.54
13796;SHT30;40911;51.552;9.874;2023-04-24T09:37:53;12.27;70.06
13796;SHT30;40911;51.552;9.874;2023-04-24T09:40:22;11.62;70.08
13796;SHT30;40911;51.552;9.874;2023-04-24T09:42:45;11.65;70.89
13796;SHT30;40911;51.552;9.874;2023-04-24T09:45:10;11.93;70.97
13796;SHT30;40911;51.552;9.874;2023-04-24T09:47:36;11.83;70.61
13796;SHT30;40911;51.552;9.874;2023-04-24T09:49:57;11.62;70.65
13796;SHT30;40911;51.552;9.874;2023-04-24T09:52:19;11.95;70.62
13796;SHT30;40911;51.552;9.874;2023-04-24T09:54:41;12.16;70.91
13796;SHT30;40911;51.552;9.874;2023-04-24T09:57:06;12.06;70.68
13796;SHT30;40911;51.552;9.874;2023-04-24T09:59:29;12.23;71.20
13796;SHT30;40911;51.552;9.874;2023-04-24T10:01:51;12.19;70.54
13796;SHT30;40911;51.552;9.874;2023-04-24T10:04:17;12.51;70.41
13796;SHT30;40911;51.552;9.874;2023-04-24T10:06:42;12.55;70.50
13796;SHT30;40911;51.552;9.874;2023-04-24T10:09:04;12.61;69.83
13796;SHT30;40911;51.552;9.874;2023-04-24T10:11:27;12.64;69.05
13796;SHT30;40911;51.552;9.874;2023-04-24T10:13:50;12.57;68.26
13796;SHT30;40911;51.552;9.874;2023-04-24T10:16:12;12.86;67.57
13796;SHT30;40911;51.552;9.874;2023-04-24T10:18:35;13.20;67.75
13796;SHT30;40911;51.552;9.874;2023-04-24T10:20:57;14.16;66.62
13796;SHT30;40911;51.552;9.874;2023-04-24T10:23:21;13.91;65.32
13796;SHT30;40911;51.552;9.874;2023-04-24T10:25:43;14.34;64.67
13796;SHT30;40911;51.552;9.874;2023-04-24T10:28:05;14.12;64.98
13796;SHT30;40911;51.552;9.874;2023-04-24T10:30:30;14.33;65.95
13796;SHT30;40911;51.552;9.874;2023-04-24T10:32:55;14.06;66.77
13796;SHT30;40911;51.552;9.874;2023-04-24T10:35:17;13.84;66.59
13796;SHT30;40911;51.552;9.874;2023-04-24T10:37:44;14.12;67.29
13796;SHT30;40911;51.552;9.874;2023-04-24T10:40:08;14.32;66.67
13796;SHT30;40911;51.552;9.874;2023-04-24T10:42:30;14.06;66.79
13796;SHT30;40911;51.552;9.874;2023-04-24T10:44:51;14.37;66.73
13796;SHT30;40911;51.552;9.874;2023-04-24T10:47:15;14.39;65.96
13796;SHT30;40911;51.552;9.874;2023-04-24T10:49:37;14.49;65.89
13796;SHT30;40911;51.552;9.874;2023-04-24T10:52:00;14.50;65.12
13796;SHT30;40911;51.552;9.874;2023-04-24T10:54:23;14.10;63.97
13796;SHT30;40911;51.552;9.874;2023-04-24T10:56:45;14.92;63.72
13796;SHT30;40911;51.552;9.874;2023-04-24T10:59:07;14.43;66.29
13796;SHT30;40911;51.552;9.874;2023-04-24T11:01:31;12.85;69.65
13796;SHT30;40911;51.552;9.874;2023-04-24T11:03:56;13.50;69.45
13796;SHT30;40911;51.552;9.874;2023-04-24T11:06:28;14.01;68.84
13796;SHT30;40911;51.552;9.874;2023-04-24T11:08:51;13.67;68.46
13796;SHT30;40911;51.552;9.874;2023-04-24T11:11:14;14.46;68.65
13796;SHT30;40911;51.552;9.874;2023-04-24T11:14:02;14.20;68.75
13796;SHT30;40911;51.552;9.874;2023-04-24T11:16:26;13.62;67.81
13796;SHT30;40911;51.552;9.874;2023-04-24T11:18:51;13.81;66.75
13796;SHT30;40911;51.552;9.874;2023-04-24T11:21:17;14.73;68.33
13796;SHT30;40911;51.552;9.874;2023-04-24T11:23:39;14.44;67.50
13796;SHT30;40911;51.552;9.874;2023-04-24T11:26:10;13.15;70.00
13796;SHT30;40911;51.552;9.874;2023-04-24T11:28:32;14.05;70.96
13796;SHT30;40911;51.552;9.874;2023-04-24T11:30:53;12.82;72.00
13796;SHT30;40911;51.552;9.874;2023-04-24T11:33:19;12.99;74.09
13796;SHT30;40911;51.552;9.874;2023-04-24T11:35:41;11.93;77.72
13796;SHT30;40911;51.552;9.874;2023-04-24T11:38:06;12.30;80.83
13796;SHT30;40911;51.552;9.874;2023-04-24T11:40:28;11.85;83.27
13796;SHT30;40911;51.552;9.874;2023-04-24T11:42:51;11.65;83.22
13796;SHT30;40911;51.552;9.874;2023-04-24T11:45:14;11.39;83.39
13796;SHT30;40911;51.552;9.874;2023-04-24T11:47:37;11.88;84.11
13796;SHT30;40911;51.552;9.874;2023-04-24T11:50:00;12.00;82.47
13796;SHT30;40911;51.552;9.874;2023-04-24T11:52:21;12.84;82.44
13796;SHT30;40911;51.552;9.874;2023-04-24T11:54:48;12.29;81.84
13796;SHT30;40911;51.552;9.874;2023-04-24T11:57:11;12.25;81.18
13796;SHT30;40911;51.552;9.874;2023-04-24T11:59:36;11.90;81.51
13796;SHT30;40911;51.552;9.874;2023-04-24T12:01:58;11.79;79.81
13796;SHT30;40911;51.552;9.874;2023-04-24T12:04:20;12.16;79.33
13796;SHT30;40911;51.552;9.874;2023-04-24T12:06:59;12.26;78.58
13796;SHT30;40911;51.552;9.874;2023-04-24T12:09:21;12.25;78.99
13796;SHT30;40911;51.552;9.874;2023-04-24T12:11:53;13.08;75.33
13796;SHT30;40911;51.552;9.874;2023-04-24T12:14:15;12.71;72.92
13796;SHT30;40911;51.552;9.874;2023-04-24T12:16:38;13.08;72.11
13796;SHT30;40911;51.552;9.874;2023-04-24T12:18:59;12.79;70.71
13796;SHT30;40911;51.552;9.874;2023-04-24T12:21:22;12.86;69.81
13796;SHT30;40911;51.552;9.874;2023-04-24T12:23:47;12.53;69.74
13796;SHT30;40911;51.552;9.874;2023-04-24T12:26:08;11.93;70.49
13796;SHT30;40911;51.552;9.874;2023-04-24T12:28:36;12.43;70.23
13796;SHT30;40911;51.552;9.874;2023-04-24T12:31:00;12.16;70.15
13796;SHT30;40911;51.552;9.874;2023-04-24T12:33:22;12.13;70.44
13796;SHT30;40911;51.552;9.874;2023-04-24T12:35:43;11.95;71.02
13796;SHT30;40911;51.552;9.874;2023-04-24T12:38:05;11.55;71.57
13796;SHT30;40911;51.552;9.874;2023-04-24T12:40:28;11.75;72.20
13796;SHT30;40911;51.552;9.874;2023-04-24T12:42:51;11.65;71.83
13796;SHT30;40911;51.552;9.874;2023-04-24T12:45:15;11.81;71.50
13796;SHT30;40911;51.552;9.874;2023-04-24T12:47:38;11.82;72.05
13796;SHT30;40911;51.552;9.874;2023-04-24T12:50:00;12.09;72.12
13796;SHT30;40911;51.552;9.874;2023-04-24T12:52:22;12.61;72.67
13796;SHT30;40911;51.552;9.874;2023-04-24T12:54:44;12.60;74.50
13796;SHT30;40911;51.552;9.874;2023-04-24T12:57:05;12.53;74.19
13796;SHT30;40911;51.552;9.874;2023-04-24T12:59:27;12.51;75.58
13796;SHT30;40911;51.552;9.874;2023-04-24T13:01:50;11.88;76.13
13796;SHT30;40911;51.552;9.874;2023-04-24T13:04:11;11.65;76.28
13796;SHT30;40911;51.552;9.874;2023-04-24T13:06:33;11.46;77.75
13796;SHT30;40911;51.552;9.874;2023-04-24T13:08:55;11.72;76.47
13796;SHT30;40911;51.552;9.874;2023-04-24T13:11:18;11.09;77.05
13796;SHT30;40911;51.552;9.874;2023-04-24T13:13:39;11.06;77.48
13796;SHT30;40911;51.552;9.874;2023-04-24T13:16:01;11.46;77.37
13796;SHT30;40911;51.552;9.874;2023-04-24T13:18:24;11.46;78.73
13796;SHT30;40911;51.552;9.874;2023-04-24T13:20:45;10.68;80.19
13796;SHT30;40911;51.552;9.874;2023-04-24T13:23:07;10.61;81.58
13796;SHT30;40911;51.552;9.874;2023-04-24T13:25:34;10.26;81.17
13796;SHT30;40911;51.552;9.874;2023-04-24T13:27:56;10.58;82.40
13796;SHT30;40911;51.552;9.874;2023-04-24T13:30:17;10.17;82.66
13796;SHT30;40911;51.552;9.874;2023-04-24T13:32:39;10.34;82.12
13796;SHT30;40911;51.552;9.874;2023-04-24T13:35:02;10.69;82.78
13796;SHT30;40911;51.552;9.874;2023-04-24T13:37:24;10.41;81.36
13796;SHT30;40911;51.552;9.874;2023-04-24T13:39:45;10.20;80.41
13796;SHT30;40911;51.552;9.874;2023-04-24T13:42:07;10.14;80.14
13796;SHT30;40911;51.552;9.874;2023-04-24T13:44:28;10.38;80.14
13796;SHT30;40911;51.552;9.874;2023-04-24T13:46:53;10.60;79.10
13796;SHT30;40911;51.552;9.874;2023-04-24T13:49:17;10.34;78.52
13796;SHT30;40911;51.552;9.874;2023-04-24T13:51:41;10.33;78.56
13796;SHT30;40911;51.552;9.874;2023-04-24T13:54:03;10.37;78.04
13796;SHT30;40911;51.552;9.874;2023-04-24T13:56:25;10.48;77.97
13796;SHT30;40911;51.552;9.874;2023-04-24T13:58:47;10.51;78.19
13796;SHT30;40911;51.552;9.874;2023-04-24T14:01:09;10.47;77.95
13796;SHT30;40911;51.552;9.874;2023-04-24T14:03:31;10.33;78.33
13796;SHT30;40911;51.552;9.874;2023-04-24T14:05:52;10.54;78.65
13796;SHT30;40911;51.552;9.874;2023-04-24T14:08:15;10.52;77.70
13796;SHT30;40911;51.552;9.874;2023-04-24T14:10:37;10.31;78.87
13796;SHT30;40911;51.552;9.874;2023-04-24T14:12:58;10.42;79.47
13796;SHT30;40911;51.552;9.874;2023-04-24T14:15:20;10.07;79.31
13796;SHT30;40911;51.552;9.874;2023-04-24T14:17:42;10.41;80.34
13796;SHT30;40911;51.552;9.874;2023-04-24T14:20:04;10.34;80.26
13796;SHT30;40911;51.552;9.874;2023-04-24T14:22:27;10.38;79.65
13796;SHT30;40911;51.552;9.874;2023-04-24T14:24:50;10.33;79.38
13796;SHT30;40911;51.552;9.874;2023-04-24T14:27:11;10.28;79.25
13796;SHT30;40911;51.552;9.874;2023-04-24T14:29:33;10.47;80.06
13796;SHT30;40911;51.552;9.874;2023-04-24T14:31:54;10.20;80.11
13796;SHT30;40911;51.552;9.874;2023-04-24T14:34:16;10.42;80.29
13796;SHT30;40911;51.552;9.874;2023-04-24T14:36:37;10.36;80.72
13796;SHT30;40911;51.552;9.874;2023-04-24T14:38:59;10.18;81.59
13796;SHT30;40911;51.552;9.874;2023-04-24T14:41:25;10.10;82.11
13796;SHT30;40911;51.552;9.874;2023-04-24T14:43:46;10.03;82.98
13796;SHT30;40911;51.552;9.874;2023-04-24T14:46:08;9.96;83.77
13796;SHT30;40911;51.552;9.874;2023-04-24T14:48:29;9.83;85.15
13796;SHT30;40911;51.552;9.874;2023-04-24T14:50:51;10.12;85.08
13796;SHT30;40911;51.552;9.874;2023-04-24T14:53:13;9.81;85.09
13796;SHT30;40911;51.552;9.874;2023-04-24T14:55:36;9.82;84.93
13796;SHT30;40911;51.552;9.874;2023-04-24T14:57:59;9.86;85.10
13796;SHT30;40911;51.552;9.874;2023-04-24T15:00:21;9.70;84.82
13796;SHT30;40911;51.552;9.874;2023-04-24T15:02:44;9.68;84.46